Hovedside
METAR-TAF:

METAR-TAF

Lufthavner :

Kiritimati, Kiribati

breddegrad: 01-59N, lengdegrad: 157-29W, høyde over havet: 3 m

Gjeldene værobservasjon

Denne rapporten ble laget for 22 minutter siden, klokken 01:00 UTC
Temperatur
Trykk

METAR: PLCH 200100Z 1

Tid: 15:22 (01:22 UTC)

Varsel

Denne rapporten ble laget for 2 timer og 18 minutter siden, klokken 23:04 UTC
Varsel gyldig fra 20. klokken 00 UTC til 20. klokken 24 UTC
Vind 7 kt fra Øst
Sikt 10 km eller mer
Spredte skyer i en høyde av 1900 ft

TAF: PLCH 192304Z 2000/2024 10007KT 9999 SCT019

Værobservasjoner og værvarsel for over 4000 flyplasser (METAR- og TAF-rapporter).

Tilgjengelige stasjoner er representert av de røde og gule prikkene på kartet.

Hold musepekeren over prikken for å se navnet på stasjonen.

Klikk så for å se værobservasjoner og -varsler.

For å forandre kartet kan du klikke på den grønne knappen med svart kryss for å zoome inn, på den grønne knappen med strek for å zoome ut, eller på de grønne pilene for å se tilstøtende kart.


METAR-TAF: